DLH8DS EDDF-LPPT
Flight info
| Callsign | DLH8DS |
|---|---|
| Flight time | 2h 36m |
| Altitude | 35000 |
| Route | SOBRA2L/18 SOBRA Y180 DIK UN857 TOLVU DCT RAPOR DCT GIMER DCT ESTOC UT300 PON UN872 GODIX/N0434F310 UN872 DIDAK/N0442F350 UN872 ERIGA UZ218 FUJTI DCT ATLEN DCT ABUPI DCT XAMAX |
| Aircraft | A321/M-SDE3FGHIRWY/LB1 |
Departure
| Time | 2026-04-14 07:33 |
|---|---|
| Airport | Frankfurt Main Airport (EDDF) |
Arrival
| Time | 2026-04-14 10:09 |
|---|---|
| Airport | Lisbon Humberto Delgado Airport (LPPT) |
| Time | Latitude | Longitude | Altitude | Speed | Heading |
|---|---|---|---|---|---|
| 2026-04-14 07:09 | 50.04608 | 8.56771 | 360 ft | 0 kts | 295° |
| 2026-04-14 07:09 | 50.04608 | 8.56772 | 360 ft | 0 kts | 294° |
| 2026-04-14 07:20 | 50.04604 | 8.56783 | 358 ft | 4 kts | 294° |
| 2026-04-14 07:21 | 50.04594 | 8.56821 | 363 ft | 4 kts | 294° |
| 2026-04-14 07:21 | 50.04583 | 8.56857 | 364 ft | 4 kts | 282° |
| 2026-04-14 07:21 | 50.04585 | 8.56892 | 363 ft | 4 kts | 224° |
| 2026-04-14 07:21 | 50.04608 | 8.56912 | 362 ft | 4 kts | 194° |
| 2026-04-14 07:22 | 50.04611 | 8.56913 | 362 ft | 3 kts | 193° |
| 2026-04-14 07:22 | 50.04585 | 8.56903 | 363 ft | 4 kts | 193° |
| 2026-04-14 07:22 | 50.04559 | 8.56894 | 361 ft | 4 kts | 193° |
| 2026-04-14 07:22 | 50.04534 | 8.56885 | 359 ft | 2 kts | 193° |
| 2026-04-14 07:23 | 50.04533 | 8.56884 | 359 ft | 0 kts | 193° |
| 2026-04-14 07:24 | 50.04532 | 8.56884 | 359 ft | 1 kts | 193° |
| 2026-04-14 07:24 | 50.04501 | 8.56872 | 359 ft | 9 kts | 194° |
| 2026-04-14 07:25 | 50.04447 | 8.56801 | 364 ft | 11 kts | 244° |
| 2026-04-14 07:25 | 50.04416 | 8.56676 | 358 ft | 14 kts | 250° |
| 2026-04-14 07:25 | 50.04381 | 8.56530 | 359 ft | 15 kts | 249° |
| 2026-04-14 07:25 | 50.04348 | 8.56393 | 359 ft | 9 kts | 249° |
| 2026-04-14 07:26 | 50.04346 | 8.56385 | 360 ft | 0 kts | 249° |
| 2026-04-14 07:27 | 50.04340 | 8.56362 | 360 ft | 5 kts | 250° |
| 2026-04-14 07:27 | 50.04326 | 8.56300 | 362 ft | 6 kts | 250° |
| 2026-04-14 07:27 | 50.04313 | 8.56248 | 356 ft | 6 kts | 249° |
| 2026-04-14 07:28 | 50.04294 | 8.56168 | 360 ft | 9 kts | 249° |
| 2026-04-14 07:28 | 50.04268 | 8.56061 | 362 ft | 14 kts | 250° |
| 2026-04-14 07:28 | 50.04230 | 8.55899 | 356 ft | 17 kts | 249° |
| 2026-04-14 07:28 | 50.04186 | 8.55717 | 357 ft | 19 kts | 250° |
| 2026-04-14 07:29 | 50.04139 | 8.55519 | 359 ft | 20 kts | 249° |
| 2026-04-14 07:29 | 50.04090 | 8.55313 | 355 ft | 20 kts | 249° |
| 2026-04-14 07:29 | 50.04040 | 8.55107 | 354 ft | 21 kts | 249° |
| 2026-04-14 07:29 | 50.03989 | 8.54893 | 355 ft | 22 kts | 249° |
| 2026-04-14 07:30 | 50.03933 | 8.54659 | 355 ft | 24 kts | 250° |
| 2026-04-14 07:30 | 50.03876 | 8.54427 | 350 ft | 23 kts | 245° |
| 2026-04-14 07:30 | 50.03796 | 8.54205 | 347 ft | 24 kts | 248° |
| 2026-04-14 07:30 | 50.03737 | 8.53960 | 345 ft | 25 kts | 249° |
| 2026-04-14 07:31 | 50.03675 | 8.53702 | 347 ft | 26 kts | 250° |
| 2026-04-14 07:31 | 50.03609 | 8.53436 | 340 ft | 27 kts | 250° |
| 2026-04-14 07:31 | 50.03544 | 8.53164 | 335 ft | 27 kts | 250° |
| 2026-04-14 07:31 | 50.03479 | 8.52898 | 337 ft | 24 kts | 246° |
| 2026-04-14 07:32 | 50.03423 | 8.52681 | 333 ft | 19 kts | 253° |
| 2026-04-14 07:32 | 50.03362 | 8.52595 | 335 ft | 14 kts | 180° |
| 2026-04-14 07:32 | 50.03131 | 8.52596 | 335 ft | 68 kts | 179° |
| 2026-04-14 07:32 | 50.02422 | 8.52605 | 333 ft | 134 kts | 179° |
| 2026-04-14 07:33 | 50.01313 | 8.52625 | 496 ft | 170 kts | 180° |
| 2026-04-14 07:33 | 50.00171 | 8.52636 | 1430 ft | 163 kts | 179° |
| 2026-04-14 07:33 | 49.98995 | 8.52697 | 2166 ft | 178 kts | 178° |
| 2026-04-14 07:34 | 49.94602 | 8.53005 | 3448 ft | 241 kts | 176° |
| 2026-04-14 07:34 | 49.92918 | 8.53123 | 4284 ft | 243 kts | 177° |
| 2026-04-14 07:34 | 49.91223 | 8.53237 | 5097 ft | 246 kts | 179° |
| 2026-04-14 07:35 | 49.89480 | 8.52778 | 5405 ft | 266 kts | 207° |
| 2026-04-14 07:35 | 49.88037 | 8.50957 | 5947 ft | 272 kts | 237° |
| 2026-04-14 07:35 | 49.87353 | 8.48254 | 6628 ft | 272 kts | 266° |
| 2026-04-14 07:35 | 49.87326 | 8.45322 | 7317 ft | 273 kts | 272° |
| 2026-04-14 07:36 | 49.87346 | 8.42367 | 8048 ft | 275 kts | 271° |
| 2026-04-14 07:36 | 49.87367 | 8.39437 | 8763 ft | 277 kts | 271° |
| 2026-04-14 07:36 | 49.87384 | 8.36438 | 9483 ft | 279 kts | 270° |
| 2026-04-14 07:36 | 49.87397 | 8.33418 | 10186 ft | 281 kts | 270° |
| 2026-04-14 07:37 | 49.87408 | 8.30302 | 10497 ft | 299 kts | 270° |
| 2026-04-14 07:37 | 49.87416 | 8.26959 | 10636 ft | 321 kts | 270° |
| 2026-04-14 07:37 | 49.87426 | 8.23423 | 11058 ft | 332 kts | 269° |
| 2026-04-14 07:37 | 49.87436 | 8.19827 | 11667 ft | 336 kts | 269° |
| 2026-04-14 07:38 | 49.87447 | 8.16201 | 12303 ft | 338 kts | 269° |
| 2026-04-14 07:38 | 49.87458 | 8.12539 | 12920 ft | 341 kts | 269° |
| 2026-04-14 07:38 | 49.87466 | 8.08844 | 13529 ft | 343 kts | 268° |
| 2026-04-14 07:38 | 49.87472 | 8.05126 | 14102 ft | 346 kts | 268° |
| 2026-04-14 07:39 | 49.87475 | 8.01432 | 14631 ft | 349 kts | 268° |
| 2026-04-14 07:39 | 49.87477 | 7.97657 | 15144 ft | 352 kts | 268° |
| 2026-04-14 07:39 | 49.87478 | 7.93836 | 15669 ft | 355 kts | 268° |
| 2026-04-14 07:39 | 49.87477 | 7.89994 | 16159 ft | 358 kts | 268° |
| 2026-04-14 07:40 | 49.87478 | 7.86114 | 16666 ft | 361 kts | 268° |
| 2026-04-14 07:40 | 49.87478 | 7.82212 | 17172 ft | 364 kts | 268° |
| 2026-04-14 07:40 | 49.87281 | 7.78286 | 17665 ft | 365 kts | 261° |
| 2026-04-14 07:40 | 49.86940 | 7.74369 | 18171 ft | 368 kts | 261° |
| 2026-04-14 07:41 | 49.86582 | 7.70474 | 18645 ft | 371 kts | 261° |
| 2026-04-14 07:41 | 49.86205 | 7.66511 | 19111 ft | 372 kts | 260° |
| 2026-04-14 07:41 | 49.85821 | 7.62526 | 19564 ft | 374 kts | 260° |
| 2026-04-14 07:41 | 49.85437 | 7.58517 | 20006 ft | 376 kts | 260° |
| 2026-04-14 07:42 | 49.85056 | 7.54489 | 20449 ft | 378 kts | 260° |
| 2026-04-14 07:42 | 49.84676 | 7.50450 | 20886 ft | 380 kts | 260° |
| 2026-04-14 07:42 | 49.84294 | 7.46383 | 21327 ft | 382 kts | 260° |
| 2026-04-14 07:42 | 49.83911 | 7.42289 | 21750 ft | 384 kts | 260° |
| 2026-04-14 07:43 | 49.83525 | 7.38183 | 22180 ft | 386 kts | 260° |
| 2026-04-14 07:43 | 49.83129 | 7.34054 | 22590 ft | 388 kts | 259° |
| 2026-04-14 07:43 | 49.82727 | 7.29906 | 23000 ft | 391 kts | 259° |
| 2026-04-14 07:43 | 49.82321 | 7.25738 | 23419 ft | 393 kts | 259° |
| 2026-04-14 07:44 | 49.81916 | 7.21583 | 23704 ft | 398 kts | 261° |
| 2026-04-14 07:44 | 49.81501 | 7.17322 | 23985 ft | 401 kts | 261° |
| 2026-04-14 07:44 | 49.81085 | 7.13037 | 24314 ft | 404 kts | 261° |
| 2026-04-14 07:44 | 49.80667 | 7.08727 | 24653 ft | 406 kts | 261° |
| 2026-04-14 07:45 | 49.80245 | 7.04392 | 24996 ft | 408 kts | 261° |
| 2026-04-14 07:45 | 49.79820 | 7.00042 | 25332 ft | 409 kts | 261° |
| 2026-04-14 07:45 | 49.79390 | 6.95677 | 25674 ft | 411 kts | 261° |
| 2026-04-14 07:45 | 49.78953 | 6.91288 | 26008 ft | 413 kts | 261° |
| 2026-04-14 07:46 | 49.78511 | 6.86882 | 26339 ft | 415 kts | 261° |
| 2026-04-14 07:46 | 49.78067 | 6.82464 | 26658 ft | 417 kts | 261° |
| 2026-04-14 07:46 | 49.77622 | 6.78022 | 26980 ft | 419 kts | 262° |
| 2026-04-14 07:46 | 49.77177 | 6.73603 | 27232 ft | 422 kts | 262° |
| 2026-04-14 07:47 | 49.76721 | 6.69102 | 27508 ft | 425 kts | 262° |
| 2026-04-14 07:47 | 49.76261 | 6.64566 | 27815 ft | 427 kts | 262° |
| 2026-04-14 07:47 | 49.75796 | 6.60015 | 28124 ft | 429 kts | 262° |
| 2026-04-14 07:47 | 49.75329 | 6.55447 | 28444 ft | 431 kts | 262° |
| 2026-04-14 07:48 | 49.74856 | 6.50861 | 28751 ft | 433 kts | 262° |
| 2026-04-14 07:48 | 49.74379 | 6.46247 | 29058 ft | 435 kts | 262° |
| 2026-04-14 07:48 | 49.73899 | 6.41616 | 29357 ft | 437 kts | 262° |
| 2026-04-14 07:48 | 49.73414 | 6.36971 | 29648 ft | 438 kts | 262° |
| 2026-04-14 07:49 | 49.72925 | 6.32300 | 29923 ft | 440 kts | 262° |
| 2026-04-14 07:49 | 49.72436 | 6.27675 | 30219 ft | 441 kts | 262° |
| 2026-04-14 07:49 | 49.71941 | 6.23003 | 30458 ft | 442 kts | 262° |
| 2026-04-14 07:49 | 49.71442 | 6.18308 | 30673 ft | 443 kts | 262° |
| 2026-04-14 07:50 | 49.70942 | 6.13613 | 30876 ft | 444 kts | 262° |
| 2026-04-14 07:50 | 49.70440 | 6.08908 | 31154 ft | 443 kts | 262° |
| 2026-04-14 07:50 | 49.69938 | 6.04225 | 31441 ft | 442 kts | 262° |
| 2026-04-14 07:50 | 49.69436 | 5.99546 | 31722 ft | 441 kts | 262° |
| 2026-04-14 07:51 | 49.68933 | 5.94878 | 31999 ft | 440 kts | 262° |
| 2026-04-14 07:51 | 49.68427 | 5.90217 | 32270 ft | 439 kts | 262° |
| 2026-04-14 07:51 | 49.67918 | 5.85558 | 32536 ft | 439 kts | 263° |
| 2026-04-14 07:51 | 49.67410 | 5.80912 | 32786 ft | 438 kts | 263° |
| 2026-04-14 07:52 | 49.66908 | 5.76334 | 33033 ft | 438 kts | 263° |
| 2026-04-14 07:52 | 49.66394 | 5.71695 | 33282 ft | 438 kts | 263° |
| 2026-04-14 07:52 | 49.65879 | 5.67061 | 33527 ft | 437 kts | 263° |
| 2026-04-14 07:52 | 49.65364 | 5.62438 | 33773 ft | 437 kts | 263° |
| 2026-04-14 07:53 | 49.64852 | 5.57819 | 34024 ft | 436 kts | 263° |
| 2026-04-14 07:53 | 49.64512 | 5.54762 | 34177 ft | 436 kts | 263° |
| 2026-04-14 07:53 | 49.63996 | 5.50148 | 34370 ft | 436 kts | 263° |
| 2026-04-14 07:53 | 49.63479 | 5.45542 | 34547 ft | 436 kts | 263° |
| 2026-04-14 07:54 | 49.62962 | 5.40932 | 34720 ft | 437 kts | 263° |
| 2026-04-14 07:54 | 49.62348 | 5.36329 | 34888 ft | 439 kts | 257° |
| 2026-04-14 07:54 | 49.61407 | 5.31826 | 35043 ft | 441 kts | 255° |
| 2026-04-14 07:55 | 49.59467 | 5.22859 | 35163 ft | 440 kts | 255° |
| 2026-04-14 07:55 | 49.57688 | 5.13869 | 35171 ft | 437 kts | 258° |
| 2026-04-14 07:56 | 49.56155 | 5.04827 | 35169 ft | 436 kts | 259° |
| 2026-04-14 07:56 | 49.54624 | 4.95776 | 35172 ft | 437 kts | 259° |
| 2026-04-14 07:57 | 49.53019 | 4.86750 | 35177 ft | 437 kts | 259° |
| 2026-04-14 07:57 | 49.51392 | 4.77784 | 35189 ft | 438 kts | 259° |
| 2026-04-14 07:58 | 49.49749 | 4.68756 | 35195 ft | 438 kts | 259° |
| 2026-04-14 07:58 | 49.48116 | 4.59728 | 35201 ft | 438 kts | 259° |
| 2026-04-14 07:59 | 49.46473 | 4.50707 | 35203 ft | 438 kts | 259° |
| 2026-04-14 07:59 | 49.44807 | 4.41696 | 35201 ft | 438 kts | 259° |
| 2026-04-14 08:00 | 49.43138 | 4.32688 | 35203 ft | 437 kts | 260° |
| 2026-04-14 08:00 | 49.41485 | 4.23762 | 35209 ft | 437 kts | 260° |
| 2026-04-14 08:01 | 49.39816 | 4.14776 | 35210 ft | 437 kts | 259° |
| 2026-04-14 08:01 | 49.38132 | 4.05804 | 35212 ft | 438 kts | 259° |
| 2026-04-14 08:02 | 49.36444 | 3.96831 | 35213 ft | 437 kts | 260° |
| 2026-04-14 08:02 | 49.35024 | 3.87790 | 35215 ft | 435 kts | 264° |
| 2026-04-14 08:03 | 49.33836 | 3.78767 | 35213 ft | 434 kts | 264° |
| 2026-04-14 08:03 | 49.32609 | 3.69703 | 35213 ft | 435 kts | 263° |
| 2026-04-14 08:04 | 49.31303 | 3.60652 | 35212 ft | 435 kts | 263° |
| 2026-04-14 08:04 | 49.29967 | 3.51615 | 35198 ft | 435 kts | 263° |
| 2026-04-14 08:05 | 49.28633 | 3.42585 | 35212 ft | 434 kts | 263° |
| 2026-04-14 08:05 | 49.27302 | 3.33566 | 35215 ft | 434 kts | 263° |
| 2026-04-14 08:06 | 49.25973 | 3.24559 | 35216 ft | 434 kts | 263° |
| 2026-04-14 08:06 | 49.24639 | 3.15607 | 35208 ft | 434 kts | 263° |
| 2026-04-14 08:07 | 49.23291 | 3.06597 | 35195 ft | 434 kts | 263° |
| 2026-04-14 08:07 | 49.21926 | 2.97590 | 35205 ft | 434 kts | 263° |
| 2026-04-14 08:08 | 49.20562 | 2.88657 | 35206 ft | 434 kts | 263° |
| 2026-04-14 08:08 | 49.19193 | 2.79679 | 35208 ft | 434 kts | 263° |
| 2026-04-14 08:09 | 49.17827 | 2.70714 | 35209 ft | 433 kts | 263° |
| 2026-04-14 08:09 | 49.16447 | 2.61739 | 35193 ft | 434 kts | 263° |
| 2026-04-14 08:10 | 49.15044 | 2.52763 | 35206 ft | 434 kts | 263° |
| 2026-04-14 08:10 | 49.13637 | 2.43796 | 35214 ft | 434 kts | 263° |
| 2026-04-14 08:11 | 49.12529 | 2.34867 | 35234 ft | 428 kts | 269° |
| 2026-04-14 08:11 | 49.11704 | 2.25861 | 35211 ft | 428 kts | 269° |
| 2026-04-14 08:12 | 49.10867 | 2.16867 | 35192 ft | 428 kts | 269° |
| 2026-04-14 08:12 | 49.10015 | 2.07880 | 35203 ft | 427 kts | 269° |
| 2026-04-14 08:13 | 49.08270 | 1.99087 | 35204 ft | 442 kts | 252° |
| 2026-04-14 08:13 | 49.05694 | 1.90567 | 35202 ft | 442 kts | 253° |
| 2026-04-14 08:14 | 49.03126 | 1.82043 | 35196 ft | 443 kts | 253° |
| 2026-04-14 08:14 | 49.00556 | 1.73501 | 35174 ft | 443 kts | 253° |
| 2026-04-14 08:15 | 48.97976 | 1.64972 | 35194 ft | 444 kts | 253° |
| 2026-04-14 08:15 | 48.95367 | 1.56447 | 35197 ft | 444 kts | 253° |
| 2026-04-14 08:16 | 48.92766 | 1.47968 | 35201 ft | 444 kts | 253° |
| 2026-04-14 08:16 | 48.90155 | 1.39459 | 35206 ft | 444 kts | 253° |
| 2026-04-14 08:17 | 48.87542 | 1.30950 | 35177 ft | 444 kts | 253° |
| 2026-04-14 08:17 | 48.84918 | 1.22449 | 35201 ft | 444 kts | 253° |
| 2026-04-14 08:18 | 48.82293 | 1.13970 | 35207 ft | 443 kts | 253° |
| 2026-04-14 08:18 | 48.79670 | 1.05514 | 35208 ft | 443 kts | 253° |
| 2026-04-14 08:19 | 48.77025 | 0.97077 | 35207 ft | 443 kts | 253° |
| 2026-04-14 08:19 | 48.74370 | 0.88719 | 35204 ft | 446 kts | 249° |
| 2026-04-14 08:20 | 48.71150 | 0.80630 | 35195 ft | 449 kts | 247° |
| 2026-04-14 08:20 | 48.67873 | 0.72578 | 35202 ft | 448 kts | 247° |
| 2026-04-14 08:21 | 48.64601 | 0.64549 | 35191 ft | 448 kts | 247° |
| 2026-04-14 08:21 | 48.61335 | 0.56527 | 35194 ft | 448 kts | 247° |
| 2026-04-14 08:22 | 48.58073 | 0.48544 | 35194 ft | 448 kts | 247° |
| 2026-04-14 08:22 | 48.54784 | 0.40502 | 35394 ft | 451 kts | 247° |
| 2026-04-14 08:22 | 48.53134 | 0.36482 | 35641 ft | 450 kts | 247° |
| 2026-04-14 08:23 | 48.51487 | 0.32482 | 35886 ft | 448 kts | 247° |
| 2026-04-14 08:23 | 48.49844 | 0.28494 | 36129 ft | 447 kts | 247° |
| 2026-04-14 08:23 | 48.48205 | 0.24524 | 36357 ft | 446 kts | 247° |
| 2026-04-14 08:23 | 48.46564 | 0.20556 | 36582 ft | 445 kts | 247° |
| 2026-04-14 08:24 | 48.44924 | 0.16602 | 36785 ft | 444 kts | 247° |
| 2026-04-14 08:24 | 48.43290 | 0.12668 | 36974 ft | 443 kts | 247° |
| 2026-04-14 08:24 | 48.41657 | 0.08733 | 37143 ft | 443 kts | 247° |
| 2026-04-14 08:25 | 48.38404 | 0.00915 | 37199 ft | 443 kts | 247° |
| 2026-04-14 08:25 | 48.35068 | -0.06904 | 37186 ft | 446 kts | 245° |
| 2026-04-14 08:26 | 48.31381 | -0.14461 | 37186 ft | 449 kts | 242° |
| 2026-04-14 08:26 | 48.27550 | -0.21887 | 37188 ft | 450 kts | 242° |
| 2026-04-14 08:27 | 48.23779 | -0.29295 | 37188 ft | 450 kts | 242° |
| 2026-04-14 08:27 | 48.19981 | -0.36757 | 37168 ft | 451 kts | 242° |
| 2026-04-14 08:28 | 48.16158 | -0.44236 | 37170 ft | 452 kts | 242° |
| 2026-04-14 08:28 | 48.12322 | -0.51714 | 37174 ft | 453 kts | 242° |
| 2026-04-14 08:29 | 48.08478 | -0.59184 | 37177 ft | 453 kts | 242° |
| 2026-04-14 08:29 | 48.04622 | -0.66655 | 37182 ft | 454 kts | 242° |
| 2026-04-14 08:30 | 48.00763 | -0.74113 | 37173 ft | 454 kts | 242° |
| 2026-04-14 08:30 | 47.96899 | -0.81576 | 37174 ft | 455 kts | 242° |
| 2026-04-14 08:31 | 47.93031 | -0.89021 | 37154 ft | 455 kts | 242° |
| 2026-04-14 08:31 | 47.87184 | -1.00210 | 37176 ft | 457 kts | 242° |
| 2026-04-14 08:32 | 47.83275 | -1.07679 | 37174 ft | 457 kts | 242° |
| 2026-04-14 08:32 | 47.79352 | -1.15141 | 37170 ft | 458 kts | 242° |
| 2026-04-14 08:33 | 47.75439 | -1.22562 | 37162 ft | 459 kts | 242° |
| 2026-04-14 08:33 | 47.71495 | -1.30028 | 37159 ft | 459 kts | 242° |
| 2026-04-14 08:34 | 47.67549 | -1.37497 | 37158 ft | 460 kts | 242° |
| 2026-04-14 08:34 | 47.63594 | -1.44961 | 37165 ft | 460 kts | 241° |
| 2026-04-14 08:35 | 47.59636 | -1.52367 | 37160 ft | 462 kts | 240° |
| 2026-04-14 08:35 | 47.55417 | -1.59612 | 37158 ft | 466 kts | 237° |
| 2026-04-14 08:36 | 47.50611 | -1.66223 | 37164 ft | 478 kts | 227° |
| 2026-04-14 08:36 | 47.45404 | -1.72342 | 37157 ft | 478 kts | 227° |
| 2026-04-14 08:37 | 47.40180 | -1.78452 | 37170 ft | 478 kts | 227° |
| 2026-04-14 08:37 | 47.34955 | -1.84539 | 37166 ft | 479 kts | 227° |
| 2026-04-14 08:38 | 47.29727 | -1.90628 | 37157 ft | 479 kts | 227° |
| 2026-04-14 08:38 | 47.24493 | -1.96716 | 37160 ft | 480 kts | 227° |
| 2026-04-14 08:39 | 47.19280 | -2.02758 | 37160 ft | 480 kts | 227° |
| 2026-04-14 08:39 | 47.14021 | -2.08804 | 37138 ft | 480 kts | 226° |
| 2026-04-14 08:40 | 47.08631 | -2.14658 | 37156 ft | 482 kts | 224° |
| 2026-04-14 08:40 | 47.03171 | -2.20382 | 37164 ft | 482 kts | 224° |
| 2026-04-14 08:41 | 46.97722 | -2.26117 | 37164 ft | 482 kts | 224° |
| 2026-04-14 08:41 | 46.92305 | -2.31890 | 37155 ft | 481 kts | 224° |
| 2026-04-14 08:42 | 46.86886 | -2.37659 | 37154 ft | 482 kts | 224° |
| 2026-04-14 08:42 | 46.81486 | -2.43377 | 37159 ft | 482 kts | 224° |
| 2026-04-14 08:43 | 46.76051 | -2.49113 | 37156 ft | 482 kts | 224° |
| 2026-04-14 08:43 | 46.70619 | -2.54835 | 37160 ft | 481 kts | 224° |
| 2026-04-14 08:44 | 46.65199 | -2.60518 | 37159 ft | 480 kts | 224° |
| 2026-04-14 08:44 | 46.59771 | -2.66191 | 37158 ft | 480 kts | 224° |
| 2026-04-14 08:45 | 46.54354 | -2.71857 | 37161 ft | 479 kts | 224° |
| 2026-04-14 08:45 | 46.48969 | -2.77482 | 37147 ft | 480 kts | 224° |
| 2026-04-14 08:46 | 46.43538 | -2.83129 | 37144 ft | 480 kts | 224° |
| 2026-04-14 08:46 | 46.38114 | -2.88749 | 37154 ft | 478 kts | 224° |
| 2026-04-14 08:47 | 46.32698 | -2.94340 | 37155 ft | 477 kts | 224° |
| 2026-04-14 08:47 | 46.27328 | -2.99879 | 37156 ft | 476 kts | 224° |
| 2026-04-14 08:48 | 46.21934 | -3.05439 | 37152 ft | 476 kts | 224° |
| 2026-04-14 08:48 | 46.16543 | -3.10985 | 37152 ft | 476 kts | 224° |
| 2026-04-14 08:49 | 46.11141 | -3.16515 | 37152 ft | 476 kts | 224° |
| 2026-04-14 08:49 | 46.06646 | -3.21104 | 37135 ft | 476 kts | 224° |
| 2026-04-14 08:50 | 46.01241 | -3.26614 | 37156 ft | 475 kts | 224° |
| 2026-04-14 08:50 | 45.95839 | -3.32103 | 37156 ft | 475 kts | 224° |
| 2026-04-14 08:51 | 45.90446 | -3.37585 | 37155 ft | 475 kts | 224° |
| 2026-04-14 08:51 | 45.85084 | -3.43027 | 37154 ft | 475 kts | 224° |
| 2026-04-14 08:52 | 45.79678 | -3.48482 | 37154 ft | 475 kts | 224° |
| 2026-04-14 08:52 | 45.74260 | -3.53923 | 37127 ft | 475 kts | 223° |
| 2026-04-14 08:53 | 45.68851 | -3.59358 | 37139 ft | 475 kts | 223° |
| 2026-04-14 08:53 | 45.63441 | -3.64782 | 37143 ft | 475 kts | 223° |
| 2026-04-14 08:54 | 45.58028 | -3.70186 | 37168 ft | 475 kts | 223° |
| 2026-04-14 08:54 | 45.52646 | -3.75560 | 37161 ft | 475 kts | 223° |
| 2026-04-14 08:55 | 45.47237 | -3.80961 | 37158 ft | 475 kts | 223° |
| 2026-04-14 08:55 | 45.41819 | -3.86355 | 37157 ft | 475 kts | 223° |
| 2026-04-14 08:56 | 45.36392 | -3.91718 | 37156 ft | 474 kts | 223° |
| 2026-04-14 08:56 | 45.30986 | -3.97060 | 37162 ft | 473 kts | 223° |
| 2026-04-14 08:57 | 45.25579 | -4.02397 | 37159 ft | 473 kts | 223° |
| 2026-04-14 08:57 | 45.20169 | -4.07721 | 37163 ft | 473 kts | 223° |
| 2026-04-14 08:58 | 45.14794 | -4.12990 | 37170 ft | 473 kts | 223° |
| 2026-04-14 08:58 | 45.09377 | -4.18290 | 37163 ft | 473 kts | 223° |
| 2026-04-14 08:59 | 45.03964 | -4.23585 | 37165 ft | 474 kts | 223° |
| 2026-04-14 08:59 | 44.98530 | -4.28876 | 37166 ft | 474 kts | 223° |
| 2026-04-14 09:00 | 44.93089 | -4.34164 | 37168 ft | 474 kts | 223° |
| 2026-04-14 09:00 | 44.87652 | -4.39445 | 37164 ft | 475 kts | 223° |
| 2026-04-14 09:01 | 44.82237 | -4.44681 | 37165 ft | 475 kts | 223° |
| 2026-04-14 09:01 | 44.76779 | -4.49944 | 37167 ft | 476 kts | 223° |
| 2026-04-14 09:02 | 44.71319 | -4.55207 | 37166 ft | 476 kts | 222° |
| 2026-04-14 09:02 | 44.65855 | -4.60452 | 37173 ft | 475 kts | 222° |
| 2026-04-14 09:03 | 44.60402 | -4.65682 | 37185 ft | 474 kts | 222° |
| 2026-04-14 09:03 | 44.54965 | -4.70886 | 37187 ft | 473 kts | 222° |
| 2026-04-14 09:04 | 44.49527 | -4.76074 | 37175 ft | 473 kts | 222° |
| 2026-04-14 09:04 | 44.44090 | -4.81256 | 37177 ft | 473 kts | 222° |
| 2026-04-14 09:05 | 44.38677 | -4.86400 | 37184 ft | 473 kts | 222° |
| 2026-04-14 09:05 | 44.33223 | -4.91568 | 37185 ft | 473 kts | 222° |
| 2026-04-14 09:06 | 44.27766 | -4.96721 | 37165 ft | 473 kts | 222° |
| 2026-04-14 09:06 | 44.22316 | -5.01867 | 37185 ft | 473 kts | 222° |
| 2026-04-14 09:07 | 44.16864 | -5.07006 | 37196 ft | 473 kts | 222° |
| 2026-04-14 09:07 | 44.11409 | -5.12129 | 37192 ft | 472 kts | 222° |
| 2026-04-14 09:08 | 44.05960 | -5.17230 | 37186 ft | 472 kts | 221° |
| 2026-04-14 09:08 | 44.00548 | -5.22298 | 37189 ft | 472 kts | 221° |
| 2026-04-14 09:09 | 43.95092 | -5.27386 | 37196 ft | 472 kts | 221° |
| 2026-04-14 09:09 | 43.89637 | -5.32457 | 37177 ft | 472 kts | 221° |
| 2026-04-14 09:10 | 43.84174 | -5.37518 | 37188 ft | 471 kts | 221° |
| 2026-04-14 09:10 | 43.78733 | -5.42571 | 37196 ft | 471 kts | 221° |
| 2026-04-14 09:11 | 43.73325 | -5.47583 | 37199 ft | 471 kts | 221° |
| 2026-04-14 09:11 | 43.67875 | -5.52607 | 37193 ft | 471 kts | 221° |
| 2026-04-14 09:12 | 43.62415 | -5.57626 | 37193 ft | 471 kts | 221° |
| 2026-04-14 09:12 | 43.56950 | -5.62645 | 37198 ft | 472 kts | 221° |
| 2026-04-14 09:13 | 43.51476 | -5.67662 | 37205 ft | 472 kts | 221° |
| 2026-04-14 09:13 | 43.45995 | -5.72668 | 37185 ft | 472 kts | 221° |
| 2026-04-14 09:14 | 43.40516 | -5.77666 | 37212 ft | 472 kts | 221° |
| 2026-04-14 09:14 | 43.35032 | -5.82658 | 37213 ft | 473 kts | 221° |
| 2026-04-14 09:15 | 43.29575 | -5.87615 | 37216 ft | 473 kts | 221° |
| 2026-04-14 09:15 | 43.24074 | -5.92598 | 37209 ft | 473 kts | 221° |
| 2026-04-14 09:16 | 43.18574 | -5.97581 | 37222 ft | 474 kts | 221° |
| 2026-04-14 09:16 | 43.13070 | -6.02559 | 37223 ft | 474 kts | 221° |
| 2026-04-14 09:17 | 43.07554 | -6.07524 | 37219 ft | 475 kts | 220° |
| 2026-04-14 09:17 | 43.02036 | -6.12480 | 37229 ft | 474 kts | 220° |
| 2026-04-14 09:18 | 42.96525 | -6.17412 | 37246 ft | 473 kts | 220° |
| 2026-04-14 09:18 | 42.91046 | -6.22309 | 37255 ft | 474 kts | 220° |
| 2026-04-14 09:19 | 42.85539 | -6.27232 | 37262 ft | 473 kts | 220° |
| 2026-04-14 09:19 | 42.80024 | -6.32143 | 37258 ft | 474 kts | 220° |
| 2026-04-14 09:20 | 42.74505 | -6.37043 | 37258 ft | 474 kts | 220° |
| 2026-04-14 09:20 | 42.68979 | -6.41942 | 37267 ft | 474 kts | 220° |
| 2026-04-14 09:21 | 42.63450 | -6.46835 | 37251 ft | 474 kts | 220° |
| 2026-04-14 09:21 | 42.57925 | -6.51718 | 37268 ft | 473 kts | 220° |
| 2026-04-14 09:22 | 42.52414 | -6.56588 | 37276 ft | 472 kts | 220° |
| 2026-04-14 09:22 | 42.46940 | -6.61398 | 37277 ft | 472 kts | 220° |
| 2026-04-14 09:23 | 42.41432 | -6.66220 | 37262 ft | 471 kts | 220° |
| 2026-04-14 09:23 | 42.35926 | -6.71041 | 37281 ft | 471 kts | 220° |
| 2026-04-14 09:24 | 42.30419 | -6.75851 | 37277 ft | 471 kts | 220° |
| 2026-04-14 09:24 | 42.24918 | -6.80644 | 37280 ft | 471 kts | 220° |
| 2026-04-14 09:25 | 42.19412 | -6.85441 | 37267 ft | 470 kts | 220° |
| 2026-04-14 09:25 | 42.13949 | -6.90182 | 37290 ft | 470 kts | 219° |
| 2026-04-14 09:26 | 42.08459 | -6.94936 | 37292 ft | 469 kts | 219° |
| 2026-04-14 09:26 | 42.02969 | -6.99677 | 37304 ft | 469 kts | 219° |
| 2026-04-14 09:27 | 41.97480 | -7.04415 | 37286 ft | 468 kts | 219° |
| 2026-04-14 09:27 | 41.91992 | -7.09144 | 37289 ft | 469 kts | 219° |
| 2026-04-14 09:28 | 41.86493 | -7.13871 | 37297 ft | 469 kts | 219° |
| 2026-04-14 09:28 | 41.80990 | -7.18587 | 37296 ft | 469 kts | 219° |
| 2026-04-14 09:29 | 41.75482 | -7.23295 | 37275 ft | 469 kts | 219° |
| 2026-04-14 09:29 | 41.69933 | -7.27807 | 37298 ft | 470 kts | 217° |
| 2026-04-14 09:30 | 41.64244 | -7.32144 | 37304 ft | 471 kts | 216° |
| 2026-04-14 09:30 | 41.58553 | -7.36469 | 37304 ft | 470 kts | 216° |
| 2026-04-14 09:31 | 41.52896 | -7.40839 | 37285 ft | 470 kts | 216° |
| 2026-04-14 09:31 | 41.47239 | -7.45213 | 37288 ft | 470 kts | 216° |
| 2026-04-14 09:32 | 41.41566 | -7.49570 | 37297 ft | 471 kts | 216° |
| 2026-04-14 09:33 | 41.33044 | -7.56080 | 37299 ft | 471 kts | 216° |
| 2026-04-14 09:33 | 41.27361 | -7.60409 | 37296 ft | 471 kts | 216° |
| 2026-04-14 09:34 | 41.21673 | -7.64737 | 37306 ft | 471 kts | 216° |
| 2026-04-14 09:34 | 41.15991 | -7.69053 | 37315 ft | 470 kts | 216° |
| 2026-04-14 09:35 | 41.10346 | -7.73330 | 37316 ft | 470 kts | 216° |
| 2026-04-14 09:35 | 41.04672 | -7.77624 | 37304 ft | 470 kts | 216° |
| 2026-04-14 09:36 | 40.98993 | -7.81916 | 37313 ft | 470 kts | 216° |
| 2026-04-14 09:36 | 40.93313 | -7.86195 | 37317 ft | 470 kts | 216° |
| 2026-04-14 09:37 | 40.87625 | -7.90466 | 37318 ft | 470 kts | 216° |
| 2026-04-14 09:37 | 40.81944 | -7.94726 | 37310 ft | 470 kts | 216° |
| 2026-04-14 09:38 | 40.76264 | -7.98992 | 37308 ft | 470 kts | 215° |
| 2026-04-14 09:38 | 40.70567 | -8.03243 | 37314 ft | 471 kts | 215° |
| 2026-04-14 09:39 | 40.64861 | -8.07495 | 37316 ft | 471 kts | 215° |
| 2026-04-14 09:39 | 40.59157 | -8.11741 | 37308 ft | 471 kts | 215° |
| 2026-04-14 09:40 | 40.53455 | -8.15980 | 37310 ft | 471 kts | 215° |
| 2026-04-14 09:40 | 40.47737 | -8.20224 | 37313 ft | 472 kts | 215° |
| 2026-04-14 09:41 | 40.42011 | -8.24455 | 37315 ft | 472 kts | 215° |
| 2026-04-14 09:41 | 40.36278 | -8.28680 | 37317 ft | 472 kts | 215° |
| 2026-04-14 09:42 | 40.31514 | -8.32192 | 37318 ft | 472 kts | 215° |
| 2026-04-14 09:42 | 40.24857 | -8.37102 | 37320 ft | 471 kts | 215° |
| 2026-04-14 09:43 | 40.19146 | -8.41295 | 37187 ft | 469 kts | 215° |
| 2026-04-14 09:43 | 40.16299 | -8.43377 | 36918 ft | 467 kts | 215° |
| 2026-04-14 09:43 | 40.14420 | -8.44751 | 36748 ft | 467 kts | 215° |
| 2026-04-14 09:43 | 40.11584 | -8.46824 | 36490 ft | 468 kts | 214° |
| 2026-04-14 09:44 | 40.08745 | -8.48900 | 36120 ft | 467 kts | 214° |
| 2026-04-14 09:44 | 40.05899 | -8.50986 | 35408 ft | 469 kts | 214° |
| 2026-04-14 09:44 | 40.03063 | -8.53058 | 34937 ft | 466 kts | 214° |
| 2026-04-14 09:44 | 40.00234 | -8.55120 | 34398 ft | 465 kts | 214° |
| 2026-04-14 09:45 | 39.97420 | -8.57170 | 33851 ft | 462 kts | 214° |
| 2026-04-14 09:45 | 39.94623 | -8.59203 | 33345 ft | 458 kts | 214° |
| 2026-04-14 09:45 | 39.91844 | -8.61223 | 32831 ft | 455 kts | 214° |
| 2026-04-14 09:45 | 39.89093 | -8.63220 | 32333 ft | 451 kts | 214° |
| 2026-04-14 09:46 | 39.86357 | -8.65203 | 31821 ft | 448 kts | 213° |
| 2026-04-14 09:46 | 39.83644 | -8.67167 | 31323 ft | 444 kts | 214° |
| 2026-04-14 09:46 | 39.80954 | -8.69118 | 30821 ft | 441 kts | 214° |
| 2026-04-14 09:46 | 39.78284 | -8.71053 | 30355 ft | 438 kts | 213° |
| 2026-04-14 09:47 | 39.75638 | -8.72966 | 29819 ft | 433 kts | 213° |
| 2026-04-14 09:47 | 39.73016 | -8.74855 | 29368 ft | 427 kts | 213° |
| 2026-04-14 09:47 | 39.70433 | -8.76716 | 28919 ft | 422 kts | 213° |
| 2026-04-14 09:47 | 39.67914 | -8.78533 | 28473 ft | 417 kts | 213° |
| 2026-04-14 09:48 | 39.65396 | -8.80349 | 28050 ft | 412 kts | 213° |
| 2026-04-14 09:48 | 39.62905 | -8.82145 | 27632 ft | 407 kts | 213° |
| 2026-04-14 09:48 | 39.60438 | -8.83921 | 27218 ft | 403 kts | 213° |
| 2026-04-14 09:48 | 39.58002 | -8.85672 | 26816 ft | 399 kts | 213° |
| 2026-04-14 09:49 | 39.55584 | -8.87408 | 26412 ft | 395 kts | 213° |
| 2026-04-14 09:49 | 39.53183 | -8.89131 | 26009 ft | 392 kts | 213° |
| 2026-04-14 09:49 | 39.50807 | -8.90837 | 25600 ft | 389 kts | 213° |
| 2026-04-14 09:49 | 39.48441 | -8.92535 | 25329 ft | 389 kts | 213° |
| 2026-04-14 09:50 | 39.46055 | -8.94252 | 25286 ft | 395 kts | 213° |
| 2026-04-14 09:50 | 39.43644 | -8.95983 | 25268 ft | 398 kts | 213° |
| 2026-04-14 09:50 | 39.41199 | -8.97732 | 24469 ft | 407 kts | 213° |
| 2026-04-14 09:50 | 39.38701 | -8.99520 | 23724 ft | 413 kts | 213° |
| 2026-04-14 09:51 | 39.36183 | -9.01314 | 23083 ft | 412 kts | 212° |
| 2026-04-14 09:51 | 39.33711 | -9.03069 | 22542 ft | 408 kts | 212° |
| 2026-04-14 09:51 | 39.31240 | -9.04823 | 22093 ft | 403 kts | 212° |
| 2026-04-14 09:51 | 39.28790 | -9.06564 | 21492 ft | 402 kts | 212° |
| 2026-04-14 09:52 | 39.26362 | -9.08290 | 21048 ft | 396 kts | 212° |
| 2026-04-14 09:52 | 39.23958 | -9.09997 | 20595 ft | 391 kts | 212° |
| 2026-04-14 09:52 | 39.21593 | -9.11674 | 20069 ft | 388 kts | 212° |
| 2026-04-14 09:52 | 39.19234 | -9.13350 | 19607 ft | 383 kts | 212° |
| 2026-04-14 09:53 | 39.16912 | -9.14998 | 19122 ft | 380 kts | 212° |
| 2026-04-14 09:53 | 39.14607 | -9.16628 | 18667 ft | 375 kts | 212° |
| 2026-04-14 09:53 | 39.12327 | -9.18239 | 18176 ft | 371 kts | 212° |
| 2026-04-14 09:53 | 39.10107 | -9.19808 | 17741 ft | 366 kts | 212° |
| 2026-04-14 09:54 | 39.07890 | -9.21374 | 17299 ft | 360 kts | 212° |
| 2026-04-14 09:54 | 39.05707 | -9.22918 | 16871 ft | 355 kts | 212° |
| 2026-04-14 09:54 | 39.03560 | -9.24437 | 16447 ft | 350 kts | 212° |
| 2026-04-14 09:54 | 39.01435 | -9.25941 | 16029 ft | 346 kts | 212° |
| 2026-04-14 09:55 | 38.99335 | -9.27426 | 15609 ft | 342 kts | 212° |
| 2026-04-14 09:55 | 38.97262 | -9.28887 | 15196 ft | 338 kts | 212° |
| 2026-04-14 09:55 | 38.95207 | -9.30331 | 14791 ft | 335 kts | 212° |
| 2026-04-14 09:55 | 38.93175 | -9.31758 | 14390 ft | 332 kts | 212° |
| 2026-04-14 09:56 | 38.91157 | -9.33177 | 13982 ft | 329 kts | 212° |
| 2026-04-14 09:56 | 38.89162 | -9.34581 | 13567 ft | 325 kts | 212° |
| 2026-04-14 09:56 | 38.87192 | -9.35966 | 13178 ft | 321 kts | 212° |
| 2026-04-14 09:56 | 38.85247 | -9.37333 | 12792 ft | 317 kts | 212° |
| 2026-04-14 09:57 | 38.83323 | -9.38684 | 12424 ft | 313 kts | 212° |
| 2026-04-14 09:57 | 38.81423 | -9.40016 | 12054 ft | 310 kts | 212° |
| 2026-04-14 09:57 | 38.79562 | -9.41320 | 11688 ft | 307 kts | 211° |
| 2026-04-14 09:57 | 38.77689 | -9.42630 | 11310 ft | 305 kts | 211° |
| 2026-04-14 09:58 | 38.75830 | -9.43933 | 10946 ft | 303 kts | 211° |
| 2026-04-14 09:58 | 38.73985 | -9.45224 | 10578 ft | 301 kts | 211° |
| 2026-04-14 09:58 | 38.72151 | -9.46502 | 10209 ft | 300 kts | 211° |
| 2026-04-14 09:58 | 38.70325 | -9.47779 | 9818 ft | 297 kts | 211° |
| 2026-04-14 09:59 | 38.68517 | -9.49042 | 9407 ft | 296 kts | 211° |
| 2026-04-14 09:59 | 38.66717 | -9.50298 | 9096 ft | 291 kts | 210° |
| 2026-04-14 09:59 | 38.64970 | -9.51513 | 8953 ft | 280 kts | 210° |
| 2026-04-14 09:59 | 38.63285 | -9.52683 | 8829 ft | 270 kts | 210° |
| 2026-04-14 10:00 | 38.61663 | -9.53810 | 8673 ft | 261 kts | 211° |
| 2026-04-14 10:00 | 38.60043 | -9.54731 | 8408 ft | 258 kts | 197° |
| 2026-04-14 10:00 | 38.58270 | -9.55026 | 8101 ft | 257 kts | 178° |
| 2026-04-14 10:00 | 38.56535 | -9.54574 | 7790 ft | 255 kts | 155° |
| 2026-04-14 10:01 | 38.55103 | -9.53293 | 7476 ft | 252 kts | 130° |
| 2026-04-14 10:01 | 38.54243 | -9.51383 | 7157 ft | 248 kts | 104° |
| 2026-04-14 10:01 | 38.54098 | -9.49229 | 6825 ft | 243 kts | 79° |
| 2026-04-14 10:01 | 38.54498 | -9.47134 | 6458 ft | 242 kts | 71° |
| 2026-04-14 10:02 | 38.55096 | -9.45131 | 6126 ft | 240 kts | 66° |
| 2026-04-14 10:02 | 38.55720 | -9.43167 | 5863 ft | 235 kts | 68° |
| 2026-04-14 10:02 | 38.56268 | -9.41217 | 5584 ft | 232 kts | 70° |
| 2026-04-14 10:02 | 38.56721 | -9.39249 | 5268 ft | 231 kts | 74° |
| 2026-04-14 10:03 | 38.57068 | -9.37253 | 4992 ft | 226 kts | 78° |
| 2026-04-14 10:03 | 38.57305 | -9.35319 | 4836 ft | 215 kts | 79° |
| 2026-04-14 10:03 | 38.57528 | -9.33448 | 4536 ft | 212 kts | 80° |
| 2026-04-14 10:03 | 38.57747 | -9.31569 | 4086 ft | 215 kts | 80° |
| 2026-04-14 10:04 | 38.57954 | -9.29751 | 4019 ft | 196 kts | 80° |
| 2026-04-14 10:04 | 38.58138 | -9.28095 | 4019 ft | 187 kts | 80° |
| 2026-04-14 10:04 | 38.58438 | -9.26460 | 4022 ft | 190 kts | 70° |
| 2026-04-14 10:04 | 38.58910 | -9.24882 | 4018 ft | 190 kts | 60° |
| 2026-04-14 10:05 | 38.59721 | -9.23605 | 3899 ft | 187 kts | 38° |
| 2026-04-14 10:05 | 38.60847 | -9.22808 | 3700 ft | 185 kts | 21° |
| 2026-04-14 10:05 | 38.62034 | -9.22179 | 3473 ft | 184 kts | 21° |
| 2026-04-14 10:05 | 38.63207 | -9.21556 | 3225 ft | 179 kts | 21° |
| 2026-04-14 10:06 | 38.64337 | -9.20955 | 2984 ft | 173 kts | 20° |
| 2026-04-14 10:06 | 38.65436 | -9.20369 | 2769 ft | 168 kts | 20° |
| 2026-04-14 10:06 | 38.66484 | -9.19811 | 2552 ft | 155 kts | 21° |
| 2026-04-14 10:06 | 38.67443 | -9.19300 | 2331 ft | 145 kts | 20° |
| 2026-04-14 10:07 | 38.68357 | -9.18813 | 2131 ft | 140 kts | 21° |
| 2026-04-14 10:07 | 38.69255 | -9.18334 | 1941 ft | 139 kts | 21° |
| 2026-04-14 10:07 | 38.70147 | -9.17859 | 1751 ft | 139 kts | 20° |
| 2026-04-14 10:07 | 38.71041 | -9.17382 | 1560 ft | 139 kts | 20° |
| 2026-04-14 10:08 | 38.71935 | -9.16905 | 1372 ft | 139 kts | 21° |
| 2026-04-14 10:08 | 38.72818 | -9.16434 | 1189 ft | 140 kts | 21° |
| 2026-04-14 10:08 | 38.73712 | -9.15956 | 1002 ft | 139 kts | 21° |
| 2026-04-14 10:08 | 38.74606 | -9.15479 | 819 ft | 138 kts | 21° |
| 2026-04-14 10:09 | 38.75498 | -9.15003 | 632 ft | 139 kts | 21° |
| 2026-04-14 10:09 | 38.76388 | -9.14527 | 435 ft | 138 kts | 20° |
| 2026-04-14 10:09 | 38.77263 | -9.14064 | 344 ft | 120 kts | 22° |
| 2026-04-14 10:09 | 38.77759 | -9.13797 | 344 ft | 41 kts | 22° |
| 2026-04-14 10:10 | 38.77961 | -9.13679 | 349 ft | 26 kts | 27° |
| 2026-04-14 10:10 | 38.78055 | -9.13584 | 349 ft | 13 kts | 91° |
| 2026-04-14 10:10 | 38.78067 | -9.13511 | 348 ft | 0 kts | 69° |
| 2026-04-14 10:10 | 38.78068 | -9.13509 | 348 ft | 1 kts | 69° |
| 2026-04-14 10:11 | 38.78072 | -9.13484 | 351 ft | 6 kts | 80° |
| 2026-04-14 10:11 | 38.78046 | -9.13427 | 350 ft | 9 kts | 151° |
| 2026-04-14 10:11 | 38.77984 | -9.13404 | 347 ft | 11 kts | 167° |
| 2026-04-14 10:11 | 38.77906 | -9.13382 | 347 ft | 12 kts | 168° |
| 2026-04-14 10:12 | 38.77815 | -9.13359 | 351 ft | 14 kts | 169° |
| 2026-04-14 10:12 | 38.77715 | -9.13333 | 347 ft | 16 kts | 168° |
| 2026-04-14 10:12 | 38.77601 | -9.13320 | 353 ft | 17 kts | 179° |
| 2026-04-14 10:12 | 38.77480 | -9.13293 | 353 ft | 18 kts | 168° |
| 2026-04-14 10:13 | 38.77357 | -9.13264 | 347 ft | 18 kts | 173° |
| 2026-04-14 10:13 | 38.77260 | -9.13242 | 347 ft | 10 kts | 168° |
| 2026-04-14 10:13 | 38.77248 | -9.13182 | 355 ft | 8 kts | 79° |
| 2026-04-14 10:13 | 38.77251 | -9.13166 | 352 ft | 0 kts | 78° |